createdAt,value
2017-08-10T00:03:06.556Z,1009.3
2017-08-10T00:03:47.101Z,1009.32
2017-08-10T00:04:27.547Z,1009.31
2017-08-10T00:05:08.084Z,1009.33
2017-08-10T00:05:48.555Z,1009.36
2017-08-10T00:06:29.010Z,1009.39
2017-08-10T00:07:09.557Z,1009.44
2017-08-10T00:09:21.009Z,1009.47
2017-08-10T00:10:02.045Z,1009.43
2017-08-10T00:10:42.558Z,1009.45
2017-08-10T00:11:23.381Z,1009.45
2017-08-10T00:12:04.116Z,1009.4
2017-08-10T00:12:45.361Z,1009.43
2017-08-10T00:13:25.726Z,1009.4
2017-08-10T00:14:06.289Z,1009.41
2017-08-10T00:14:46.644Z,1009.35
2017-08-10T00:15:27.523Z,1009.4
2017-08-10T00:16:08.067Z,1009.45
2017-08-10T00:16:49.063Z,1009.43
2017-08-10T00:17:29.286Z,1009.47
2017-08-10T00:18:09.838Z,1009.43
2017-08-10T00:18:50.631Z,1009.41
2017-08-10T00:19:30.989Z,1009.38
2017-08-10T00:20:11.431Z,1009.34
2017-08-10T00:20:52.006Z,1009.37
2017-08-10T00:21:32.328Z,1009.37
2017-08-10T00:22:12.765Z,1009.32
2017-08-10T00:22:53.246Z,1009.33
2017-08-10T00:23:33.784Z,1009.31
2017-08-10T00:24:14.229Z,1009.31
2017-08-10T00:24:54.763Z,1009.33
2017-08-10T00:25:35.148Z,1009.31
2017-08-10T00:26:15.556Z,1009.31
2017-08-10T00:26:55.987Z,1009.34
2017-08-10T00:27:36.457Z,1009.33
2017-08-10T00:28:16.784Z,1009.35
2017-08-10T00:28:57.702Z,1009.35
2017-08-10T00:29:37.660Z,1009.32
2017-08-10T00:30:18.100Z,1009.31
2017-08-10T00:30:58.474Z,1009.32
2017-08-10T00:31:38.854Z,1009.28
2017-08-10T00:32:19.652Z,1009.3
2017-08-10T00:33:00.130Z,1009.26
2017-08-10T00:33:40.591Z,1009.27
2017-08-10T00:34:21.092Z,1009.24
2017-08-10T00:35:01.446Z,1009.23
2017-08-10T00:35:41.867Z,1009.22
2017-08-10T00:36:22.392Z,1009.26
2017-08-10T00:37:02.734Z,1009.26
2017-08-10T00:37:43.144Z,1009.23
2017-08-10T00:38:23.713Z,1009.26
2017-08-10T00:39:04.067Z,1009.24
2017-08-10T00:39:44.470Z,1009.26
2017-08-10T00:40:25.343Z,1009.25
2017-08-10T00:41:05.719Z,1009.23
2017-08-10T00:41:46.166Z,1009.23
2017-08-10T00:42:26.617Z,1009.25
2017-08-10T00:43:07.001Z,1009.29
2017-08-10T00:43:47.428Z,1009.3
2017-08-10T00:44:27.924Z,1009.34
2017-08-10T00:45:08.426Z,1009.36
2017-08-10T00:45:48.979Z,1009.39
2017-08-10T00:46:29.397Z,1009.39
2017-08-10T00:47:09.791Z,1009.38
2017-08-10T00:47:50.212Z,1009.4
2017-08-10T00:48:30.566Z,1009.42
2017-08-10T00:49:11.040Z,1009.4
2017-08-10T00:49:51.399Z,1009.45
2017-08-10T00:50:31.862Z,1009.4
2017-08-10T00:51:12.261Z,1009.38
2017-08-10T00:51:52.686Z,1009.4
2017-08-10T00:52:33.065Z,1009.4
2017-08-10T00:53:13.548Z,1009.39
2017-08-10T00:53:53.899Z,1009.39
2017-08-10T00:54:34.391Z,1009.38
2017-08-10T00:55:14.817Z,1009.33
2017-08-10T00:55:55.211Z,1009.32
2017-08-10T00:56:36.047Z,1009.3
2017-08-10T00:57:16.875Z,1009.31
2017-08-10T00:57:57.509Z,1009.26
2017-08-10T00:58:38.336Z,1009.23
2017-08-10T00:59:18.444Z,1009.2
2017-08-10T00:59:59.193Z,1009.19
2017-08-10T01:00:39.696Z,1009.17
2017-08-10T01:01:20.256Z,1009.15
2017-08-10T01:02:00.700Z,1009.11
2017-08-10T01:02:41.132Z,1009.12
2017-08-10T01:03:21.451Z,1009.15
2017-08-10T01:04:03.398Z,1009.16
2017-08-10T01:04:44.150Z,1009.14
2017-08-10T01:05:24.648Z,1009.16
2017-08-10T01:06:05.036Z,1009.14
2017-08-10T01:06:45.523Z,1009.17
2017-08-10T01:07:26.579Z,1009.2
2017-08-10T01:08:06.678Z,1009.22
2017-08-10T01:08:50.017Z,1009.26
2017-08-10T01:09:30.358Z,1009.25
2017-08-10T01:10:10.835Z,1009.32
2017-08-10T01:10:51.263Z,1009.32
2017-08-10T01:11:31.833Z,1009.4
2017-08-10T01:12:12.288Z,1009.39
2017-08-10T01:12:52.840Z,1009.39
2017-08-10T01:13:33.363Z,1009.39
2017-08-10T01:14:14.172Z,1009.41
2017-08-10T01:14:55.929Z,1009.38
2017-08-10T01:15:36.605Z,1009.42
2017-08-10T01:16:18.639Z,1009.41
2017-08-10T01:16:59.293Z,1009.42
2017-08-10T01:17:40.222Z,1009.41
2017-08-10T01:18:21.997Z,1009.37
2017-08-10T01:19:03.851Z,1009.4
2017-08-10T01:22:11.673Z,1009.5
2017-08-10T01:23:04.692Z,1009.54
2017-08-10T01:23:45.473Z,1009.51
2017-08-10T01:24:25.958Z,1009.5
2017-08-10T01:25:06.364Z,1009.53
2017-08-10T01:25:46.795Z,1009.52
2017-08-10T01:26:27.228Z,1009.57
2017-08-10T01:27:07.612Z,1009.56
2017-08-10T01:27:48.006Z,1009.57
2017-08-10T01:28:28.421Z,1009.59
2017-08-10T01:29:08.858Z,1009.58
2017-08-10T01:29:49.245Z,1009.61
2017-08-10T01:30:29.641Z,1009.61
2017-08-10T01:31:10.069Z,1009.56
2017-08-10T01:31:50.505Z,1009.56
2017-08-10T01:32:30.857Z,1009.57
2017-08-10T01:33:11.285Z,1009.55
2017-08-10T01:33:51.679Z,1009.56
2017-08-10T01:34:32.103Z,1009.54
2017-08-10T01:35:12.469Z,1009.54
2017-08-10T01:35:52.892Z,1009.55
2017-08-10T01:36:33.265Z,1009.56
2017-08-10T01:37:13.705Z,1009.57
2017-08-10T01:37:54.075Z,1009.57
2017-08-10T01:38:34.490Z,1009.6
2017-08-10T01:39:14.923Z,1009.56
2017-08-10T01:39:55.348Z,1009.55
2017-08-10T01:40:35.699Z,1009.56
2017-08-10T01:41:16.089Z,1009.54
2017-08-10T01:41:56.484Z,1009.55
2017-08-10T01:42:36.887Z,1009.51
2017-08-10T01:43:17.281Z,1009.53
2017-08-10T01:43:57.701Z,1009.53
2017-08-10T01:44:38.127Z,1009.54
2017-08-10T01:45:18.548Z,1009.54
2017-08-10T01:45:58.929Z,1009.56
2017-08-10T01:46:39.307Z,1009.52
2017-08-10T01:47:19.717Z,1009.58
2017-08-10T01:48:00.097Z,1009.58
2017-08-10T01:48:40.507Z,1009.57
2017-08-10T01:49:20.844Z,1009.59
2017-08-10T01:50:01.298Z,1009.58
2017-08-10T01:50:41.731Z,1009.58
2017-08-10T01:51:22.098Z,1009.63
2017-08-10T01:52:02.504Z,1009.62
2017-08-10T01:52:42.968Z,1009.65
2017-08-10T01:53:23.299Z,1009.64
2017-08-10T01:54:03.694Z,1009.64
2017-08-10T01:54:44.112Z,1009.67
2017-08-10T01:55:24.521Z,1009.64
2017-08-10T01:56:04.885Z,1009.61
2017-08-10T01:56:45.287Z,1009.55
2017-08-10T01:57:25.711Z,1009.53
2017-08-10T01:58:06.072Z,1009.47
2017-08-10T01:58:46.424Z,1009.42
2017-08-10T01:59:26.807Z,1009.43
2017-08-10T02:00:07.196Z,1009.41
2017-08-10T02:00:47.643Z,1009.39
2017-08-10T02:01:28.013Z,1009.35
2017-08-10T02:02:08.439Z,1009.35
2017-08-10T02:02:48.807Z,1009.32
2017-08-10T02:03:29.228Z,1009.34
2017-08-10T02:04:09.624Z,1009.32
2017-08-10T02:04:50.075Z,1009.3
2017-08-10T02:05:30.461Z,1009.36
2017-08-10T02:06:10.884Z,1009.39
2017-08-10T02:06:51.238Z,1009.44
2017-08-10T02:07:31.687Z,1009.46
2017-08-10T02:08:12.093Z,1009.46
2017-08-10T02:08:52.503Z,1009.47
2017-08-10T02:09:32.918Z,1009.49
2017-08-10T02:10:13.246Z,1009.5
2017-08-10T02:10:53.683Z,1009.49
2017-08-10T02:11:34.128Z,1009.48
2017-08-10T02:12:14.565Z,1009.49
2017-08-10T02:12:54.921Z,1009.46
2017-08-10T02:13:35.405Z,1009.47
2017-08-10T02:14:15.779Z,1009.43
2017-08-10T02:14:56.161Z,1009.42
2017-08-10T02:15:36.590Z,1009.45
2017-08-10T02:16:16.999Z,1009.38
2017-08-10T02:16:57.379Z,1009.4
2017-08-10T02:17:37.732Z,1009.41
2017-08-10T02:18:18.180Z,1009.45
2017-08-10T02:18:58.581Z,1009.39
2017-08-10T02:19:38.981Z,1009.41
2017-08-10T02:20:19.337Z,1009.41
2017-08-10T02:20:59.758Z,1009.43
2017-08-10T02:21:40.152Z,1009.43
2017-08-10T02:22:20.570Z,1009.45
2017-08-10T02:23:00.954Z,1009.44
2017-08-10T02:23:41.356Z,1009.43
2017-08-10T02:24:21.731Z,1009.42
2017-08-10T02:25:02.109Z,1009.42
2017-08-10T02:25:42.511Z,1009.44
2017-08-10T02:26:22.925Z,1009.42
2017-08-10T02:27:03.295Z,1009.42
2017-08-10T02:27:43.688Z,1009.39
2017-08-10T02:28:24.175Z,1009.39
2017-08-10T02:29:04.508Z,1009.41
2017-08-10T02:29:44.905Z,1009.44
2017-08-10T02:30:25.327Z,1009.47
2017-08-10T02:31:05.691Z,1009.5
2017-08-10T02:31:46.079Z,1009.53
2017-08-10T02:32:26.510Z,1009.57
2017-08-10T02:33:06.955Z,1009.57
2017-08-10T02:33:47.390Z,1009.58
2017-08-10T02:34:28.422Z,1009.56
2017-08-10T02:35:08.759Z,1009.58
2017-08-10T02:35:49.220Z,1009.57
2017-08-10T02:36:29.657Z,1009.59
2017-08-10T02:37:10.044Z,1009.56
2017-08-10T02:37:50.467Z,1009.63
2017-08-10T02:38:30.963Z,1009.64
2017-08-10T02:39:11.436Z,1009.6
2017-08-10T02:39:51.765Z,1009.64
2017-08-10T02:40:32.165Z,1009.66
2017-08-10T02:41:12.681Z,1009.68
2017-08-10T02:41:53.045Z,1009.7
2017-08-10T02:42:33.418Z,1009.66
2017-08-10T02:43:13.841Z,1009.72
2017-08-10T02:43:54.220Z,1009.63
2017-08-10T02:44:34.625Z,1009.67
2017-08-10T02:45:15.011Z,1009.63
2017-08-10T02:45:55.428Z,1009.62
2017-08-10T02:46:35.826Z,1009.56
2017-08-10T02:47:16.237Z,1009.5
2017-08-10T02:47:56.634Z,1009.52
2017-08-10T02:48:37.062Z,1009.46
2017-08-10T02:49:17.453Z,1009.49
2017-08-10T02:49:57.790Z,1009.48
2017-08-10T02:50:38.247Z,1009.44
2017-08-10T02:51:18.613Z,1009.46
2017-08-10T02:51:59.062Z,1009.42
2017-08-10T02:52:39.466Z,1009.45
2017-08-10T02:53:19.846Z,1009.41
2017-08-10T02:54:00.264Z,1009.42
2017-08-10T02:54:40.690Z,1009.43
2017-08-10T02:55:21.101Z,1009.45
2017-08-10T02:56:01.472Z,1009.4
2017-08-10T02:56:41.838Z,1009.45
2017-08-10T02:57:22.278Z,1009.42
2017-08-10T02:58:02.700Z,1009.45
2017-08-10T02:58:43.141Z,1009.45
2017-08-10T02:59:23.474Z,1009.47
2017-08-10T03:00:03.942Z,1009.5
2017-08-10T03:00:44.363Z,1009.51
2017-08-10T03:01:24.765Z,1009.5
2017-08-10T03:02:05.163Z,1009.51
2017-08-10T03:02:45.591Z,1009.53
2017-08-10T03:03:25.977Z,1009.54
2017-08-10T03:04:06.419Z,1009.52
2017-08-10T03:04:46.811Z,1009.51
2017-08-10T03:05:27.214Z,1009.53
2017-08-10T03:06:07.600Z,1009.53
2017-08-10T03:06:48.026Z,1009.52
2017-08-10T03:07:28.442Z,1009.6
2017-08-10T03:08:08.850Z,1009.58
2017-08-10T03:08:49.252Z,1009.61
2017-08-10T03:09:29.662Z,1009.62
2017-08-10T03:10:10.066Z,1009.64
2017-08-10T03:10:50.461Z,1009.66
2017-08-10T03:11:30.853Z,1009.67
2017-08-10T03:12:11.276Z,1009.67
2017-08-10T03:12:51.652Z,1009.71
2017-08-10T03:13:32.067Z,1009.68
2017-08-10T03:14:12.516Z,1009.72
2017-08-10T03:14:52.918Z,1009.71
2017-08-10T03:15:33.305Z,1009.66
2017-08-10T03:16:13.677Z,1009.7
2017-08-10T03:16:54.287Z,1009.69
2017-08-10T03:17:34.737Z,1009.76
2017-08-10T03:18:15.123Z,1009.72
2017-08-10T03:18:55.491Z,1009.77
2017-08-10T03:19:35.940Z,1009.79
2017-08-10T03:20:16.352Z,1009.76
2017-08-10T03:20:56.726Z,1009.78
2017-08-10T03:21:37.137Z,1009.81
2017-08-10T03:22:17.517Z,1009.8
2017-08-10T03:22:57.929Z,1009.79
2017-08-10T03:23:38.308Z,1009.79
2017-08-10T03:24:18.727Z,1009.79
2017-08-10T03:24:59.091Z,1009.74
2017-08-10T03:25:39.550Z,1009.77
2017-08-10T03:26:19.915Z,1009.73
2017-08-10T03:27:00.359Z,1009.74
2017-08-10T03:27:40.759Z,1009.71
2017-08-10T03:28:21.111Z,1009.67
2017-08-10T03:29:01.545Z,1009.72
2017-08-10T03:29:41.994Z,1009.69
2017-08-10T03:30:22.380Z,1009.66
2017-08-10T03:31:02.765Z,1009.67
2017-08-10T03:31:43.158Z,1009.66
2017-08-10T03:32:23.586Z,1009.67
2017-08-10T03:33:03.952Z,1009.63
2017-08-10T03:33:44.395Z,1009.62
2017-08-10T03:34:24.769Z,1009.61
2017-08-10T03:35:05.168Z,1009.58
2017-08-10T03:35:45.567Z,1009.61
2017-08-10T03:36:25.961Z,1009.58
2017-08-10T03:37:06.364Z,1009.58
2017-08-10T03:37:46.765Z,1009.57
2017-08-10T03:38:27.139Z,1009.6
2017-08-10T03:39:07.571Z,1009.55
2017-08-10T03:39:48.055Z,1009.53
2017-08-10T03:40:28.508Z,1009.54
2017-08-10T03:41:08.849Z,1009.55
2017-08-10T03:41:49.272Z,1009.56
2017-08-10T03:42:29.662Z,1009.52
2017-08-10T03:43:10.051Z,1009.54
2017-08-10T03:43:50.486Z,1009.56
2017-08-10T03:44:30.857Z,1009.56
2017-08-10T03:45:11.233Z,1009.6
2017-08-10T03:45:51.653Z,1009.64
2017-08-10T03:46:32.034Z,1009.65
2017-08-10T03:47:12.423Z,1009.65
2017-08-10T03:47:52.882Z,1009.68
2017-08-10T03:48:33.229Z,1009.67
2017-08-10T03:49:13.635Z,1009.69
2017-08-10T03:49:54.048Z,1009.72
2017-08-10T03:50:34.398Z,1009.71
2017-08-10T03:51:14.800Z,1009.7
2017-08-10T03:51:55.209Z,1009.75
2017-08-10T03:52:35.555Z,1009.73
2017-08-10T03:53:15.986Z,1009.75
2017-08-10T03:53:56.381Z,1009.74
2017-08-10T03:54:36.800Z,1009.8
2017-08-10T03:55:17.205Z,1009.84
2017-08-10T03:55:57.593Z,1009.82
2017-08-10T03:56:38.022Z,1009.83
2017-08-10T03:57:18.428Z,1009.83
2017-08-10T03:57:58.819Z,1009.78
2017-08-10T03:58:39.222Z,1009.82
2017-08-10T03:59:19.626Z,1009.8
2017-08-10T03:59:59.976Z,1009.84
2017-08-10T04:00:40.401Z,1009.79
2017-08-10T04:01:20.781Z,1009.83
2017-08-10T04:02:01.205Z,1009.86
2017-08-10T04:02:41.631Z,1009.88
2017-08-10T04:03:22.021Z,1009.89
2017-08-10T04:04:02.450Z,1009.9
2017-08-10T04:04:42.878Z,1009.97
2017-08-10T04:05:23.281Z,1009.94
2017-08-10T04:06:03.709Z,1009.94
2017-08-10T04:06:44.133Z,1009.93
2017-08-10T04:07:24.527Z,1009.94
2017-08-10T04:08:04.936Z,1009.98
2017-08-10T04:08:45.298Z,1009.96
2017-08-10T04:09:25.711Z,1010
2017-08-10T04:10:06.153Z,1009.94
2017-08-10T04:10:46.584Z,1009.95
2017-08-10T04:11:26.969Z,1009.98
2017-08-10T04:12:07.514Z,1009.98
2017-08-10T04:12:47.921Z,1009.95
2017-08-10T04:13:28.455Z,1009.95
2017-08-10T04:14:08.834Z,1009.95
2017-08-10T04:14:49.274Z,1009.96
2017-08-10T04:15:29.661Z,1009.94
2017-08-10T04:16:10.066Z,1009.95
2017-08-10T04:16:50.517Z,1009.94
2017-08-10T04:17:30.891Z,1009.96
2017-08-10T04:18:11.302Z,1009.95
2017-08-10T04:18:51.689Z,1009.95
2017-08-10T04:19:32.100Z,1009.96
2017-08-10T04:20:12.585Z,1009.99
2017-08-10T04:20:52.948Z,1009.96
2017-08-10T04:21:33.377Z,1009.98
2017-08-10T04:22:13.803Z,1010.02
2017-08-10T04:22:54.190Z,1009.98
2017-08-10T04:23:34.586Z,1009.99
2017-08-10T04:24:14.984Z,1010
2017-08-10T04:24:55.423Z,1009.98
2017-08-10T04:25:35.782Z,1010.02
2017-08-10T04:26:16.184Z,1010.04
2017-08-10T04:26:56.612Z,1010.02
2017-08-10T04:27:37.021Z,1010.04
2017-08-10T04:28:17.434Z,1010.1
2017-08-10T04:28:57.853Z,1010.1
2017-08-10T04:29:38.243Z,1010.07
2017-08-10T04:30:18.596Z,1010.13
2017-08-10T04:30:59.042Z,1010.1
2017-08-10T04:31:39.459Z,1010.15
2017-08-10T04:32:19.844Z,1010.12
2017-08-10T04:33:00.266Z,1010.14
2017-08-10T04:33:40.707Z,1010.12
2017-08-10T04:34:21.040Z,1010.1
2017-08-10T04:35:01.438Z,1010.07
2017-08-10T04:35:41.857Z,1010.06
2017-08-10T04:36:22.221Z,1009.98
2017-08-10T04:37:02.678Z,1009.99
2017-08-10T04:37:43.053Z,1009.97
2017-08-10T04:38:23.519Z,1009.95
2017-08-10T04:39:03.928Z,1009.94
2017-08-10T04:39:44.317Z,1009.95
2017-08-10T04:40:24.758Z,1009.93
2017-08-10T04:41:05.163Z,1009.91
2017-08-10T04:41:45.558Z,1009.92
2017-08-10T04:42:25.963Z,1009.91
2017-08-10T04:43:06.382Z,1009.91
2017-08-10T04:43:46.762Z,1009.92
2017-08-10T04:44:27.159Z,1009.93
2017-08-10T04:45:07.583Z,1009.96
2017-08-10T04:45:47.985Z,1010.03
2017-08-10T04:46:28.429Z,1010.02
2017-08-10T04:47:08.849Z,1010.02
2017-08-10T04:47:49.238Z,1010.02
2017-08-10T04:48:29.683Z,1010.05
2017-08-10T04:49:10.114Z,1010
2017-08-10T04:49:50.488Z,1010.01
2017-08-10T04:50:30.850Z,1010.02
2017-08-10T04:51:11.269Z,1009.95
2017-08-10T04:51:51.691Z,1009.97
2017-08-10T04:52:32.154Z,1009.93
2017-08-10T04:53:12.601Z,1009.94
2017-08-10T04:53:53.007Z,1009.93
2017-08-10T04:54:33.465Z,1009.95
2017-08-10T04:55:13.849Z,1009.97
2017-08-10T04:55:54.271Z,1009.96
2017-08-10T04:56:34.701Z,1009.91
2017-08-10T04:57:15.102Z,1009.92
2017-08-10T04:57:55.589Z,1009.95
2017-08-10T04:58:35.943Z,1009.95
2017-08-10T04:59:16.349Z,1009.93
2017-08-10T04:59:56.742Z,1009.97
2017-08-10T05:00:37.167Z,1009.94
2017-08-10T05:01:17.586Z,1009.94
2017-08-10T05:01:58.019Z,1009.92
2017-08-10T05:02:38.387Z,1009.96
2017-08-10T05:03:18.800Z,1009.94
2017-08-10T05:03:59.204Z,1009.97
2017-08-10T05:04:39.633Z,1009.95
2017-08-10T05:05:20.022Z,1009.96
2017-08-10T05:06:00.402Z,1009.99
2017-08-10T05:06:40.944Z,1009.98
2017-08-10T05:07:21.369Z,1009.95
2017-08-10T05:08:01.739Z,1009.94
2017-08-10T05:08:42.119Z,1009.88
2017-08-10T05:09:22.551Z,1009.9
2017-08-10T05:10:02.979Z,1009.88
2017-08-10T05:10:43.399Z,1009.89
2017-08-10T05:12:41.302Z,1009.79
2017-08-10T05:13:21.716Z,1009.8
2017-08-10T05:14:02.116Z,1009.76
2017-08-10T05:14:42.554Z,1009.79
2017-08-10T05:15:22.965Z,1009.8
2017-08-10T05:16:03.325Z,1009.85
2017-08-10T05:16:43.768Z,1009.83
2017-08-10T05:17:24.520Z,1009.86
2017-08-10T05:18:04.968Z,1009.88
2017-08-10T05:18:45.361Z,1009.89
2017-08-10T05:19:25.699Z,1009.93
2017-08-10T05:20:06.135Z,1009.9
2017-08-10T05:20:46.524Z,1009.93
2017-08-10T05:21:26.930Z,1009.85
2017-08-10T05:22:07.292Z,1009.87
2017-08-10T05:22:47.820Z,1009.86
2017-08-10T05:23:28.212Z,1009.87
2017-08-10T05:24:08.641Z,1009.85
2017-08-10T05:24:49.072Z,1009.85
2017-08-10T05:25:29.531Z,1009.84
2017-08-10T05:26:09.979Z,1009.85
2017-08-10T05:26:50.380Z,1009.85
2017-08-10T05:27:30.765Z,1009.85
2017-08-10T05:28:11.188Z,1009.89
2017-08-10T05:28:51.630Z,1009.92
2017-08-10T05:29:32.091Z,1009.93
2017-08-10T05:30:12.459Z,1009.91
2017-08-10T05:30:52.956Z,1009.91
2017-08-10T05:31:33.389Z,1009.97
2017-08-10T05:32:13.795Z,1009.94
2017-08-10T05:32:54.143Z,1009.95
2017-08-10T05:33:34.560Z,1009.97
2017-08-10T05:34:14.934Z,1009.96
2017-08-10T05:34:55.356Z,1009.98
2017-08-10T05:35:35.841Z,1009.95
2017-08-10T05:36:16.267Z,1009.96
2017-08-10T05:36:56.677Z,1009.95
2017-08-10T05:37:37.057Z,1010.01
2017-08-10T05:38:17.504Z,1010.01
2017-08-10T05:38:57.922Z,1010.04
2017-08-10T05:39:38.466Z,1010.05
2017-08-10T05:40:18.928Z,1010.1
2017-08-10T05:40:59.797Z,1010.11
2017-08-10T05:41:40.082Z,1010.08
2017-08-10T05:42:20.424Z,1010.09
2017-08-10T05:43:00.840Z,1010.09
2017-08-10T05:43:41.277Z,1010.13
2017-08-10T05:44:21.626Z,1010.1
2017-08-10T05:45:02.062Z,1010.17
2017-08-10T05:45:42.424Z,1010.17
2017-08-10T05:46:22.816Z,1010.21
2017-08-10T05:47:03.228Z,1010.25
2017-08-10T05:47:43.585Z,1010.26
2017-08-10T05:48:24.018Z,1010.26
2017-08-10T05:49:04.387Z,1010.29
2017-08-10T05:49:44.816Z,1010.29
2017-08-10T05:50:25.166Z,1010.33
2017-08-10T05:51:05.602Z,1010.36
2017-08-10T05:51:45.965Z,1010.41
2017-08-10T05:52:26.380Z,1010.43
2017-08-10T05:53:06.850Z,1010.44
2017-08-10T05:53:47.239Z,1010.41
2017-08-10T05:54:27.640Z,1010.4
2017-08-10T05:55:08.080Z,1010.35
2017-08-10T05:55:48.420Z,1010.35
2017-08-10T05:56:28.810Z,1010.31
2017-08-10T05:57:09.228Z,1010.31
2017-08-10T05:57:49.676Z,1010.32
2017-08-10T05:58:30.047Z,1010.29
2017-08-10T05:59:10.454Z,1010.32
2017-08-10T05:59:50.867Z,1010.32
2017-08-10T06:00:31.303Z,1010.31
2017-08-10T06:01:11.708Z,1010.24
2017-08-10T06:01:52.157Z,1010.24
2017-08-10T06:02:32.538Z,1010.21
2017-08-10T06:03:12.977Z,1010.18
2017-08-10T06:03:53.342Z,1010.17
2017-08-10T06:04:34.233Z,1010.11
2017-08-10T06:05:29.433Z,1010.11
2017-08-10T06:06:09.939Z,1010.09
2017-08-10T06:06:50.358Z,1010.05
2017-08-10T06:07:30.786Z,1010.02
2017-08-10T06:08:11.217Z,1010.02
2017-08-10T06:08:51.670Z,1009.98
2017-08-10T06:09:32.085Z,1009.96
2017-08-10T06:10:12.409Z,1009.99
2017-08-10T06:10:52.820Z,1009.99
2017-08-10T06:11:33.202Z,1009.94
2017-08-10T06:12:13.626Z,1009.94
2017-08-10T06:12:54.045Z,1009.93
2017-08-10T06:13:34.459Z,1009.93
2017-08-10T06:14:14.995Z,1009.87
2017-08-10T06:14:55.347Z,1009.85
2017-08-10T06:15:35.783Z,1009.84
2017-08-10T06:16:16.176Z,1009.86
2017-08-10T06:16:56.570Z,1009.89
2017-08-10T06:17:37.002Z,1009.86
2017-08-10T06:18:17.390Z,1009.89
2017-08-10T06:18:57.830Z,1009.96
2017-08-10T06:19:38.283Z,1009.95
2017-08-10T06:20:18.670Z,1009.97
2017-08-10T06:20:59.099Z,1009.97
2017-08-10T06:21:39.492Z,1010.01
2017-08-10T06:22:19.947Z,1009.99
2017-08-10T06:23:00.404Z,1010.02
2017-08-10T06:23:40.869Z,1010.05
2017-08-10T06:24:21.315Z,1010.06
2017-08-10T06:25:01.713Z,1010.05
2017-08-10T06:25:42.100Z,1010.07
2017-08-10T06:26:22.539Z,1010.06
2017-08-10T06:27:02.989Z,1010.02
2017-08-10T06:27:43.474Z,1009.98
2017-08-10T06:28:23.949Z,1010
2017-08-10T06:29:04.591Z,1009.99
2017-08-10T06:29:44.888Z,1010
2017-08-10T06:30:25.546Z,1010.02
2017-08-10T06:31:06.050Z,1010.01
2017-08-10T06:31:46.445Z,1010.05
2017-08-10T06:32:26.813Z,1010.06
2017-08-10T06:33:07.261Z,1010.12
2017-08-10T06:33:47.740Z,1010.18
2017-08-10T06:34:28.147Z,1010.18
2017-08-10T06:35:08.614Z,1010.2
2017-08-10T06:35:49.218Z,1010.23
2017-08-10T06:36:29.646Z,1010.27
2017-08-10T06:37:09.994Z,1010.29
2017-08-10T06:37:50.437Z,1010.3
2017-08-10T06:38:30.875Z,1010.31
2017-08-10T06:39:11.244Z,1010.35
2017-08-10T06:39:51.704Z,1010.4
2017-08-10T06:40:32.082Z,1010.39
2017-08-10T06:41:12.472Z,1010.39
2017-08-10T06:41:53.011Z,1010.39
2017-08-10T06:42:33.984Z,1010.4
2017-08-10T06:43:13.917Z,1010.43
2017-08-10T06:43:54.262Z,1010.41
2017-08-10T06:44:34.811Z,1010.41
2017-08-10T06:45:15.215Z,1010.43
2017-08-10T06:45:55.710Z,1010.39
2017-08-10T06:46:36.213Z,1010.43
2017-08-10T06:47:16.641Z,1010.5
2017-08-10T06:47:56.978Z,1010.45
2017-08-10T06:48:37.541Z,1010.47
2017-08-10T06:49:17.956Z,1010.52
2017-08-10T06:49:58.416Z,1010.56
2017-08-10T06:50:40.351Z,1010.54
2017-08-10T06:51:20.794Z,1010.54
2017-08-10T06:52:01.182Z,1010.59
2017-08-10T06:52:41.592Z,1010.63
2017-08-10T06:53:26.843Z,1010.63
2017-08-10T06:54:07.244Z,1010.62
2017-08-10T06:54:47.701Z,1010.64
2017-08-10T06:55:28.178Z,1010.65
2017-08-10T06:56:08.551Z,1010.65
2017-08-10T06:56:48.913Z,1010.65
2017-08-10T06:57:29.445Z,1010.66
2017-08-10T06:58:09.939Z,1010.68
2017-08-10T06:58:50.287Z,1010.65
2017-08-10T06:59:30.714Z,1010.71
2017-08-10T07:00:11.101Z,1010.66
2017-08-10T07:00:51.512Z,1010.71
2017-08-10T07:01:33.342Z,1010.69
2017-08-10T07:02:13.749Z,1010.72
2017-08-10T07:10:14.146Z,1010.47
2017-08-10T07:10:56.647Z,1010.48
2017-08-10T07:11:37.482Z,1010.48
2017-08-10T07:12:17.490Z,1010.44
2017-08-10T07:12:57.963Z,1010.42
2017-08-10T07:13:38.441Z,1010.45
2017-08-10T07:14:18.946Z,1010.44
2017-08-10T07:14:59.403Z,1010.5
2017-08-10T07:15:40.155Z,1010.52
2017-08-10T07:16:20.583Z,1010.57
2017-08-10T07:17:00.993Z,1010.59
2017-08-10T07:17:41.477Z,1010.62
2017-08-10T07:18:21.913Z,1010.67
2017-08-10T07:19:02.435Z,1010.68
2017-08-10T07:19:42.942Z,1010.71
2017-08-10T07:20:23.370Z,1010.73
2017-08-10T07:21:03.803Z,1010.78
2017-08-10T07:21:44.375Z,1010.81
2017-08-10T07:22:24.787Z,1010.84
2017-08-10T07:23:05.275Z,1010.88
2017-08-10T07:23:45.686Z,1010.83
2017-08-10T07:24:26.088Z,1010.9
2017-08-10T07:25:06.543Z,1010.92
2017-08-10T07:25:47.065Z,1010.89
2017-08-10T07:26:27.445Z,1010.9
2017-08-10T07:27:08.114Z,1010.91
2017-08-10T07:27:48.758Z,1010.86
2017-08-10T07:28:29.346Z,1010.85
2017-08-10T07:29:10.143Z,1010.86
2017-08-10T07:29:50.793Z,1010.8
2017-08-10T07:30:31.096Z,1010.83
2017-08-10T07:31:11.928Z,1010.81
2017-08-10T07:31:52.670Z,1010.79
2017-08-10T07:32:33.089Z,1010.8
2017-08-10T07:33:13.533Z,1010.81
2017-08-10T07:33:54.296Z,1010.83
2017-08-10T07:34:34.624Z,1010.83
2017-08-10T07:35:15.478Z,1010.82
2017-08-10T07:35:56.510Z,1010.79
2017-08-10T07:36:36.697Z,1010.79
2017-08-10T07:37:17.321Z,1010.82
2017-08-10T07:37:57.709Z,1010.79
2017-08-10T07:38:38.190Z,1010.79
2017-08-10T07:39:18.733Z,1010.83
2017-08-10T07:39:59.107Z,1010.85
2017-08-10T07:40:39.959Z,1010.83
2017-08-10T07:41:20.440Z,1010.83
2017-08-10T07:42:03.345Z,1010.87
2017-08-10T07:42:43.887Z,1010.89
2017-08-10T07:43:24.603Z,1010.9
2017-08-10T07:44:04.926Z,1010.87
2017-08-10T07:44:45.429Z,1010.83
2017-08-10T07:45:26.242Z,1010.84
2017-08-10T07:46:06.552Z,1010.83
2017-08-10T07:46:47.032Z,1010.81
2017-08-10T07:47:27.769Z,1010.8
2017-08-10T07:48:08.114Z,1010.8
2017-08-10T07:48:48.580Z,1010.84
2017-08-10T07:49:29.295Z,1010.88
2017-08-10T07:50:09.404Z,1010.85
2017-08-10T07:50:49.876Z,1010.85
2017-08-10T07:51:30.292Z,1010.87
2017-08-10T07:52:10.791Z,1010.88
2017-08-10T07:52:51.406Z,1010.89
2017-08-10T07:53:31.813Z,1010.87
2017-08-10T07:54:12.310Z,1010.83
2017-08-10T07:54:52.751Z,1010.86
2017-08-10T07:55:33.292Z,1010.86
2017-08-10T07:56:14.505Z,1010.86
2017-08-10T07:56:54.748Z,1010.86
2017-08-10T07:57:35.336Z,1010.87
2017-08-10T07:58:15.860Z,1010.87
2017-08-10T07:58:56.282Z,1010.88
2017-08-10T07:59:37.088Z,1010.91
2017-08-10T08:00:17.613Z,1010.92
2017-08-10T08:00:58.061Z,1010.94
2017-08-10T08:01:38.529Z,1010.95
2017-08-10T08:02:19.070Z,1010.98
2017-08-10T08:02:59.632Z,1010.98
2017-08-10T08:03:39.999Z,1010.98
2017-08-10T08:04:20.458Z,1010.93
2017-08-10T08:05:01.039Z,1010.96
2017-08-10T08:05:41.866Z,1010.89
2017-08-10T08:06:22.266Z,1010.89
2017-08-10T08:07:02.694Z,1010.91
2017-08-10T08:07:43.346Z,1010.91
2017-08-10T08:08:23.718Z,1010.9
2017-08-10T08:09:04.160Z,1010.89
2017-08-10T08:09:44.795Z,1010.87
2017-08-10T08:10:25.017Z,1010.86
2017-08-10T08:11:05.777Z,1010.86
2017-08-10T08:11:46.133Z,1010.88
2017-08-10T08:12:26.673Z,1010.84
2017-08-10T08:13:07.034Z,1010.86
2017-08-10T08:13:47.633Z,1010.81
2017-08-10T08:14:28.186Z,1010.82
2017-08-10T08:15:08.686Z,1010.82
2017-08-10T08:15:49.069Z,1010.77
2017-08-10T08:16:29.670Z,1010.68
2017-08-10T08:17:10.130Z,1010.69
2017-08-10T08:17:50.597Z,1010.65
2017-08-10T08:18:31.553Z,1010.61
2017-08-10T08:19:12.025Z,1010.62
2017-08-10T08:19:52.451Z,1010.67
2017-08-10T08:20:32.928Z,1010.69
2017-08-10T08:21:14.041Z,1010.7
2017-08-10T08:21:54.464Z,1010.8
2017-08-10T08:22:34.970Z,1010.82
2017-08-10T08:23:16.492Z,1010.88
2017-08-10T08:23:56.964Z,1010.9
2017-08-10T08:24:37.372Z,1010.87
2017-08-10T08:25:18.533Z,1010.89
2017-08-10T08:25:58.755Z,1010.9
2017-08-10T08:26:39.557Z,1010.93
2017-08-10T08:27:19.850Z,1010.92